createdAt,value
2023-12-16T00:00:13.671Z,103834.97
2023-12-16T00:00:45.423Z,103830.34
2023-12-16T00:01:17.105Z,103830.34
2023-12-16T00:01:58.412Z,103830.34
2023-12-16T00:02:34.670Z,103827.63
2023-12-16T00:03:06.277Z,103825.19
2023-12-16T00:03:37.818Z,103841.47
2023-12-16T00:04:09.405Z,103826.00
2023-12-16T00:04:42.205Z,103827.63
2023-12-16T00:06:02.984Z,103832.25
2023-12-16T00:06:34.625Z,103831.44
2023-12-16T00:07:06.101Z,103827.09
2023-12-16T00:07:38.096Z,103833.34
2023-12-16T00:08:09.956Z,103832.53
2023-12-16T00:08:41.413Z,103829.81
2023-12-16T00:09:13.690Z,103832.53
2023-12-16T00:09:45.157Z,103829.00
2023-12-16T00:10:17.818Z,103823.84
2023-12-16T00:10:52.775Z,103825.75
2023-12-16T00:11:44.752Z,103825.47
2023-12-16T00:12:17.050Z,103818.44
2023-12-16T00:12:48.938Z,103824.66
2023-12-16T00:13:20.854Z,103816.81
2023-12-16T00:13:52.337Z,103823.03
2023-12-16T00:14:24.039Z,103827.38
2023-12-16T00:14:55.560Z,103826.56
2023-12-16T00:15:27.258Z,103822.22
2023-12-16T00:15:58.769Z,103828.47
2023-12-16T00:16:30.437Z,103825.75
2023-12-16T00:17:02.247Z,103828.75
2023-12-16T00:17:33.770Z,103828.47
2023-12-16T00:18:05.540Z,103823.03
2023-12-16T00:18:38.728Z,103827.66
2023-12-16T00:19:10.428Z,103825.75
2023-12-16T00:19:41.966Z,103827.94
2023-12-16T00:20:13.618Z,103830.38
2023-12-16T00:20:45.190Z,103830.38
2023-12-16T00:21:17.472Z,103834.19
2023-12-16T00:21:49.021Z,103833.91
2023-12-16T00:22:20.590Z,103833.09
2023-12-16T00:23:10.879Z,103842.84
2023-12-16T00:23:42.438Z,103835.00
2023-12-16T00:24:13.908Z,103842.31
2023-12-16T00:24:45.414Z,103834.44
2023-12-16T00:25:17.078Z,103839.88
2023-12-16T00:25:48.608Z,103843.41
2023-12-16T00:26:38.659Z,103836.34
2023-12-16T00:27:10.162Z,103839.88
2023-12-16T00:27:42.388Z,103830.94
2023-12-16T00:28:14.047Z,103841.78
2023-12-16T00:28:45.624Z,103836.34
2023-12-16T00:29:17.273Z,103839.88
2023-12-16T00:29:49.363Z,103845.31
2023-12-16T00:30:39.658Z,103841.78
2023-12-16T00:31:11.331Z,103840.69
2023-12-16T00:31:43.094Z,103840.97
2023-12-16T00:32:14.619Z,103841.78
2023-12-16T00:32:46.237Z,103836.34
2023-12-16T00:33:17.828Z,103834.72
2023-12-16T00:33:49.574Z,103830.13
2023-12-16T00:34:21.245Z,103839.06
2023-12-16T00:34:52.809Z,103840.97
2023-12-16T00:35:24.236Z,103840.97
2023-12-16T00:35:55.727Z,103835.53
2023-12-16T00:36:27.234Z,103845.59
2023-12-16T00:36:58.717Z,103833.91
2023-12-16T00:37:30.217Z,103840.16
2023-12-16T00:38:01.804Z,103840.97
2023-12-16T00:38:33.355Z,103839.34
2023-12-16T00:39:04.813Z,103839.34
2023-12-16T00:39:36.303Z,103838.53
2023-12-16T00:40:08.740Z,103834.19
2023-12-16T00:40:40.249Z,103839.34
2023-12-16T00:41:11.779Z,103832.28
2023-12-16T00:41:43.974Z,103835.81
2023-12-16T00:42:15.510Z,103838.53
2023-12-16T00:42:47.060Z,103838.53
2023-12-16T00:43:18.597Z,103836.91
2023-12-16T00:43:50.140Z,103838.53
2023-12-16T00:44:21.672Z,103837.72
2023-12-16T00:44:53.182Z,103832.28
2023-12-16T00:45:43.147Z,103838.25
2023-12-16T00:46:14.999Z,103835.81
2023-12-16T00:46:46.450Z,103835.81
2023-12-16T00:47:18.118Z,103831.47
2023-12-16T00:47:49.796Z,103834.19
2023-12-16T00:48:21.403Z,103835.81
2023-12-16T00:48:53.030Z,103832.56
2023-12-16T00:49:24.853Z,103830.66
2023-12-16T00:49:56.728Z,103832.56
2023-12-16T00:50:28.313Z,103835.28
2023-12-16T00:50:59.793Z,103833.38
2023-12-16T00:51:31.321Z,103819.81
2023-12-16T00:52:04.444Z,103827.97
2023-12-16T00:52:36.094Z,103822.81
2023-12-16T00:53:07.733Z,103828.22
2023-12-16T00:53:39.250Z,103820.91
2023-12-16T00:55:18.357Z,103825.53
2023-12-16T00:55:49.889Z,103822.81
2023-12-16T00:56:24.138Z,103820.09
2023-12-16T00:56:55.944Z,103823.91
2023-12-16T00:57:27.497Z,103818.47
2023-12-16T00:57:59.007Z,103818.47
2023-12-16T00:58:30.484Z,103819.28
2023-12-16T00:59:01.939Z,103818.75
2023-12-16T00:59:33.659Z,103808.22
2023-12-16T01:00:06.742Z,103816.34
2023-12-16T01:00:38.328Z,103810.09
2023-12-16T01:01:09.872Z,103808.47
2023-12-16T01:01:41.757Z,103812.00
2023-12-16T01:02:31.649Z,103804.44
2023-12-16T01:03:03.210Z,103802.81
2023-12-16T01:03:35.724Z,103804.69
2023-12-16T01:04:07.322Z,103799.56
2023-12-16T01:04:38.889Z,103801.44
2023-12-16T01:05:29.670Z,103802.81
2023-12-16T01:06:01.222Z,103798.47
2023-12-16T01:06:32.956Z,103802.28
2023-12-16T01:07:23.105Z,103802.28
2023-12-16T01:07:54.579Z,103799.84
2023-12-16T01:08:26.299Z,103801.75
2023-12-16T01:08:57.744Z,103804.75
2023-12-16T01:09:29.389Z,103809.34
2023-12-16T01:10:01.005Z,103809.34
2023-12-16T01:10:32.665Z,103803.13
2023-12-16T01:11:04.440Z,103805.31
2023-12-16T01:11:35.983Z,103808.84
2023-12-16T01:12:07.671Z,103812.66
2023-12-16T01:12:39.184Z,103810.22
2023-12-16T01:13:10.846Z,103814.53
2023-12-16T01:13:42.357Z,103810.22
2023-12-16T01:14:13.924Z,103808.59
2023-12-16T01:14:45.448Z,103813.19
2023-12-16T01:15:17.089Z,103811.56
2023-12-16T01:15:48.593Z,103810.75
2023-12-16T01:16:20.740Z,103807.22
2023-12-16T01:16:52.261Z,103805.63
2023-12-16T01:17:24.141Z,103803.19
2023-12-16T01:17:55.801Z,103809.41
2023-12-16T01:18:45.903Z,103809.41
2023-12-16T01:19:18.019Z,103812.41
2023-12-16T01:19:49.603Z,103810.78
2023-12-16T01:21:10.614Z,103810.78
2023-12-16T01:21:43.495Z,103806.44
2023-12-16T01:22:15.145Z,103810.22
2023-12-16T01:22:46.673Z,103813.75
2023-12-16T01:23:18.130Z,103812.13
2023-12-16T01:23:49.673Z,103813.22
2023-12-16T01:24:21.189Z,103814.31
2023-12-16T01:24:52.788Z,103812.69
2023-12-16T01:25:24.364Z,103808.88
2023-12-16T01:25:55.915Z,103811.06
2023-12-16T01:26:27.423Z,103812.97
2023-12-16T01:26:58.983Z,103807.53
2023-12-16T01:27:30.544Z,103807.03
2023-12-16T01:28:02.059Z,103797.00
2023-12-16T01:28:34.569Z,103799.72
2023-12-16T01:29:06.067Z,103800.78
2023-12-16T01:29:37.920Z,103798.09
2023-12-16T01:30:10.117Z,103796.47
2023-12-16T01:30:41.732Z,103796.47
2023-12-16T01:31:13.358Z,103797.81
2023-12-16T01:31:44.910Z,103797.81
2023-12-16T01:32:16.520Z,103806.22
2023-12-16T01:32:47.996Z,103798.09
2023-12-16T01:33:38.287Z,103799.19
2023-12-16T01:34:10.039Z,103809.75
2023-12-16T01:34:42.217Z,103800.00
2023-12-16T01:35:13.892Z,103805.41
2023-12-16T01:35:45.346Z,103806.22
2023-12-16T01:36:35.372Z,103814.38
2023-12-16T01:37:06.995Z,103813.81
2023-12-16T01:37:38.725Z,103811.38
2023-12-16T01:38:10.404Z,103814.91
2023-12-16T01:38:41.913Z,103807.88
2023-12-16T01:39:13.824Z,103815.19
2023-12-16T01:39:45.366Z,103815.19
2023-12-16T01:40:17.158Z,103814.38
2023-12-16T01:40:49.004Z,103817.34
2023-12-16T01:41:21.184Z,103819.25
2023-12-16T01:41:52.718Z,103814.66
2023-12-16T01:42:24.188Z,103807.59
2023-12-16T01:42:56.670Z,103811.13
2023-12-16T01:43:28.223Z,103813.84
2023-12-16T01:43:59.726Z,103820.06
2023-12-16T01:44:31.540Z,103817.63
2023-12-16T01:45:05.197Z,103816.81
2023-12-16T01:45:36.824Z,103814.91
2023-12-16T01:46:08.752Z,103816.00
2023-12-16T01:46:59.414Z,103820.63
2023-12-16T01:47:32.151Z,103824.94
2023-12-16T01:48:04.555Z,103824.41
2023-12-16T01:48:36.403Z,103821.97
2023-12-16T01:49:08.600Z,103821.97
2023-12-16T01:49:40.495Z,103821.97
2023-12-16T01:50:14.057Z,103828.78
2023-12-16T01:50:45.648Z,103820.66
2023-12-16T01:51:18.549Z,103828.50
2023-12-16T01:51:50.980Z,103825.78
2023-12-16T01:52:22.652Z,103828.50
2023-12-16T01:52:54.861Z,103829.59
2023-12-16T01:53:28.178Z,103830.69
2023-12-16T01:54:00.619Z,103834.47
2023-12-16T01:54:34.058Z,103826.34
2023-12-16T01:55:06.032Z,103827.44
2023-12-16T01:55:37.527Z,103829.59
2023-12-16T01:56:09.950Z,103834.75
2023-12-16T01:56:41.675Z,103834.47
2023-12-16T01:57:13.280Z,103834.47
2023-12-16T01:57:45.857Z,103833.41
2023-12-16T01:58:17.845Z,103836.09
2023-12-16T01:58:50.784Z,103832.59
2023-12-16T01:59:22.556Z,103837.47
2023-12-16T01:59:54.127Z,103836.38
2023-12-16T02:00:27.728Z,103832.03
2023-12-16T02:00:59.401Z,103836.66
2023-12-16T02:01:31.136Z,103839.34
2023-12-16T02:02:04.268Z,103835.03
2023-12-16T02:02:36.117Z,103833.13
2023-12-16T02:03:57.520Z,103835.28
2023-12-16T02:04:29.238Z,103831.78
2023-12-16T02:05:01.041Z,103834.47
2023-12-16T02:05:32.678Z,103835.28
2023-12-16T02:06:05.105Z,103842.63
2023-12-16T02:06:40.116Z,103836.09
2023-12-16T02:07:11.663Z,103832.59
2023-12-16T02:07:44.832Z,103830.69
2023-12-16T02:08:16.537Z,103833.66
2023-12-16T02:08:48.473Z,103839.91
2023-12-16T02:09:21.085Z,103835.56
2023-12-16T02:09:53.034Z,103836.38
2023-12-16T02:10:24.681Z,103833.94
2023-12-16T02:10:57.538Z,103832.31
2023-12-16T02:11:28.987Z,103842.06
2023-12-16T02:12:00.634Z,103836.66
2023-12-16T02:12:35.177Z,103834.22
2023-12-16T02:13:06.701Z,103831.50
2023-12-16T02:13:38.489Z,103824.19
2023-12-16T02:14:28.433Z,103831.22
2023-12-16T02:15:18.583Z,103832.31
2023-12-16T02:15:50.041Z,103826.34
2023-12-16T02:16:21.772Z,103824.75
2023-12-16T02:16:53.488Z,103817.72
2023-12-16T02:17:25.069Z,103823.13
2023-12-16T02:17:57.431Z,103826.13
2023-12-16T02:18:29.035Z,103822.59
2023-12-16T02:19:01.427Z,103824.50
2023-12-16T02:19:34.418Z,103830.72
2023-12-16T02:20:06.816Z,103826.38
2023-12-16T02:20:38.646Z,103829.09
2023-12-16T02:21:10.116Z,103819.34
2023-12-16T02:21:41.583Z,103818.53
2023-12-16T02:22:13.138Z,103819.34
2023-12-16T02:22:48.126Z,103822.88
2023-12-16T02:23:19.676Z,103817.44
2023-12-16T02:23:51.152Z,103813.94
2023-12-16T02:24:43.290Z,103822.06
2023-12-16T02:25:16.021Z,103822.06
2023-12-16T02:25:47.712Z,103820.16
2023-12-16T02:26:19.174Z,103819.63
2023-12-16T02:26:50.752Z,103809.06
2023-12-16T02:27:22.234Z,103817.19
2023-12-16T02:27:53.752Z,103824.50
2023-12-16T02:28:25.236Z,103818.25
2023-12-16T02:28:56.749Z,103824.50
2023-12-16T02:29:28.243Z,103830.72
2023-12-16T02:29:59.755Z,103823.69
2023-12-16T02:30:31.337Z,103821.78
2023-12-16T02:31:02.973Z,103827.19
2023-12-16T02:31:34.444Z,103822.88
2023-12-16T02:32:07.111Z,103825.56
2023-12-16T02:32:39.471Z,103825.56
2023-12-16T02:33:11.137Z,103824.75
2023-12-16T02:33:42.949Z,103817.72
2023-12-16T02:35:03.873Z,103822.31
2023-12-16T02:35:35.396Z,103815.00
2023-12-16T02:36:07.866Z,103818.81
2023-12-16T02:36:39.510Z,103809.88
2023-12-16T02:37:12.081Z,103812.31
2023-12-16T02:37:43.701Z,103817.19
2023-12-16T02:38:15.329Z,103810.41
2023-12-16T02:38:46.861Z,103817.72
2023-12-16T02:39:18.421Z,103807.69
2023-12-16T02:39:50.026Z,103810.69
2023-12-16T02:40:21.612Z,103809.59
2023-12-16T02:40:53.141Z,103813.38
2023-12-16T02:41:24.654Z,103806.34
2023-12-16T02:41:56.122Z,103802.03
2023-12-16T02:42:28.181Z,103807.47
2023-12-16T02:42:59.891Z,103812.06
2023-12-16T02:43:31.497Z,103807.16
2023-12-16T02:44:03.113Z,103810.16
2023-12-16T02:44:34.584Z,103807.47
2023-12-16T02:45:06.384Z,103816.66
2023-12-16T02:45:37.900Z,103812.06
2023-12-16T02:46:10.890Z,103808.53
2023-12-16T02:46:42.429Z,103808.53
2023-12-16T02:47:13.973Z,103821.00
2023-12-16T02:47:45.640Z,103812.34
2023-12-16T02:48:17.365Z,103813.41
2023-12-16T02:48:48.965Z,103817.75
2023-12-16T02:49:20.620Z,103819.91
2023-12-16T02:49:52.426Z,103807.19
2023-12-16T02:50:23.939Z,103816.13
2023-12-16T02:50:55.465Z,103813.41
2023-12-16T02:51:27.383Z,103813.69
2023-12-16T02:52:00.131Z,103804.47
2023-12-16T02:52:31.872Z,103810.97
2023-12-16T02:53:03.462Z,103815.31
2023-12-16T02:53:34.926Z,103819.91
2023-12-16T02:54:06.412Z,103817.47
2023-12-16T02:54:37.932Z,103815.59
2023-12-16T02:55:09.724Z,103814.78
2023-12-16T02:55:41.336Z,103804.75
2023-12-16T02:56:13.668Z,103811.25
2023-12-16T02:56:45.271Z,103812.06
2023-12-16T02:57:16.739Z,103811.25
2023-12-16T02:57:48.258Z,103804.75
2023-12-16T02:58:20.175Z,103799.34
2023-12-16T02:58:51.684Z,103802.31
2023-12-16T02:59:41.833Z,103811.25
2023-12-16T03:00:13.828Z,103801.50
2023-12-16T03:00:45.433Z,103806.91
2023-12-16T03:01:17.620Z,103807.97
2023-12-16T03:01:49.263Z,103813.38
2023-12-16T03:02:20.780Z,103814.22
2023-12-16T03:02:52.449Z,103816.94
2023-12-16T03:03:23.987Z,103817.16
2023-12-16T03:03:55.609Z,103814.47
2023-12-16T03:04:27.147Z,103812.03
2023-12-16T03:04:58.691Z,103812.03
2023-12-16T03:05:30.317Z,103812.28
2023-12-16T03:06:06.194Z,103813.94
2023-12-16T03:06:43.737Z,103806.59
2023-12-16T03:07:15.326Z,103806.59
2023-12-16T03:07:46.824Z,103807.97
2023-12-16T03:08:18.292Z,103806.88
2023-12-16T03:08:49.859Z,103805.00
2023-12-16T03:09:21.407Z,103801.47
2023-12-16T03:09:52.979Z,103805.25
2023-12-16T03:10:25.137Z,103796.03
2023-12-16T03:10:56.744Z,103801.72
2023-12-16T03:11:28.508Z,103804.16
2023-12-16T03:12:01.868Z,103793.34
2023-12-16T03:12:33.597Z,103798.75
2023-12-16T03:13:05.090Z,103794.44
2023-12-16T03:13:36.773Z,103797.94
2023-12-16T03:14:08.288Z,103799.03
2023-12-16T03:14:42.337Z,103796.03
2023-12-16T03:15:13.957Z,103790.63
2023-12-16T03:15:45.560Z,103790.63
2023-12-16T03:16:17.081Z,103797.66
2023-12-16T03:16:48.604Z,103800.38
2023-12-16T03:17:20.111Z,103792.25
2023-12-16T03:17:52.999Z,103793.06
2023-12-16T03:18:24.614Z,103793.88
2023-12-16T03:18:56.199Z,103793.06
2023-12-16T03:19:28.846Z,103803.63
2023-12-16T03:20:00.392Z,103790.09
2023-12-16T03:20:31.911Z,103793.06
2023-12-16T03:21:06.226Z,103798.50
2023-12-16T03:21:38.033Z,103788.75
2023-12-16T03:22:09.841Z,103786.84
2023-12-16T03:22:41.415Z,103783.31
2023-12-16T03:23:12.990Z,103788.75
2023-12-16T03:23:44.453Z,103784.41
2023-12-16T03:24:16.461Z,103786.03
2023-12-16T03:24:48.227Z,103787.66
2023-12-16T03:25:20.577Z,103792.25
2023-12-16T03:25:52.145Z,103791.19
2023-12-16T03:26:23.641Z,103783.06
2023-12-16T03:26:55.130Z,103788.75
2023-12-16T03:27:26.751Z,103786.84
2023-12-16T03:27:58.266Z,103784.94
2023-12-16T03:28:29.973Z,103786.84
2023-12-16T03:29:01.445Z,103787.66
2023-12-16T03:29:32.982Z,103783.06
2023-12-16T03:30:05.172Z,103789.28
2023-12-16T03:30:39.723Z,103779.81
2023-12-16T03:31:29.786Z,103789.28
2023-12-16T03:32:01.297Z,103779.53
2023-12-16T03:32:32.811Z,103788.47
2023-12-16T03:33:04.441Z,103777.63
2023-12-16T03:33:36.071Z,103775.19
2023-12-16T03:34:07.808Z,103776.00
2023-12-16T03:34:39.485Z,103776.00
2023-12-16T03:35:11.022Z,103778.72
2023-12-16T03:35:42.468Z,103776.00
2023-12-16T03:36:14.174Z,103772.50
2023-12-16T03:36:45.704Z,103781.16
2023-12-16T03:37:17.335Z,103776.00
2023-12-16T03:37:49.062Z,103774.94
2023-12-16T03:38:20.578Z,103771.94
2023-12-16T03:38:53.357Z,103766.00
2023-12-16T03:39:24.880Z,103768.44
2023-12-16T03:39:56.407Z,103778.44
2023-12-16T03:40:28.977Z,103773.03
2023-12-16T03:41:00.757Z,103772.22
2023-12-16T03:41:32.867Z,103777.38
2023-12-16T03:42:04.609Z,103772.22
2023-12-16T03:42:54.850Z,103772.22
2023-12-16T03:44:15.047Z,103771.72
2023-12-16T03:44:48.257Z,103770.06
2023-12-16T03:45:19.876Z,103768.44
2023-12-16T03:45:51.437Z,103773.84
2023-12-16T03:46:23.156Z,103767.63
2023-12-16T03:46:54.690Z,103776.56
2023-12-16T03:47:26.400Z,103769.50
2023-12-16T03:47:57.939Z,103769.25
2023-12-16T03:48:29.717Z,103767.63
2023-12-16T03:49:20.164Z,103773.59
2023-12-16T03:49:51.797Z,103763.00
2023-12-16T03:50:23.298Z,103770.31
2023-12-16T03:50:54.790Z,103771.13
2023-12-16T03:51:26.502Z,103765.72
2023-12-16T03:51:58.041Z,103775.75
2023-12-16T03:52:29.539Z,103777.63
2023-12-16T03:53:00.995Z,103774.13
2023-12-16T03:53:32.551Z,103769.50
2023-12-16T03:54:04.650Z,103783.59
2023-12-16T03:54:36.460Z,103782.78
2023-12-16T03:55:08.335Z,103778.44
2023-12-16T03:55:39.837Z,103776.81
2023-12-16T03:56:11.418Z,103773.31
2023-12-16T03:56:42.932Z,103774.13
2023-12-16T03:57:14.638Z,103781.16
2023-12-16T03:57:46.207Z,103777.63
2023-12-16T03:58:17.780Z,103778.44
2023-12-16T03:58:49.262Z,103781.16
2023-12-16T03:59:20.776Z,103775.75
2023-12-16T03:59:52.299Z,103773.84
2023-12-16T04:00:23.793Z,103774.66
2023-12-16T04:00:55.329Z,103773.84
2023-12-16T04:01:27.818Z,103771.13
2023-12-16T04:01:59.514Z,103775.47
2023-12-16T04:02:31.141Z,103777.38
2023-12-16T04:03:03.479Z,103771.72
2023-12-16T04:03:35.893Z,103771.13
2023-12-16T04:04:07.396Z,103768.44
2023-12-16T04:04:38.921Z,103758.41
2023-12-16T04:05:10.442Z,103769.25
2023-12-16T04:05:43.485Z,103770.91
2023-12-16T04:06:15.522Z,103766.53
2023-12-16T04:06:47.906Z,103768.44
2023-12-16T04:07:19.439Z,103769.25
2023-12-16T04:07:50.929Z,103768.44
2023-12-16T04:08:22.479Z,103772.75
2023-12-16T04:08:54.814Z,103775.75
2023-12-16T04:09:26.413Z,103783.06
2023-12-16T04:09:58.136Z,103778.44
2023-12-16T04:10:29.738Z,103783.06
2023-12-16T04:11:01.264Z,103781.16
2023-12-16T04:11:32.815Z,103788.47
2023-12-16T04:12:04.432Z,103790.09
2023-12-16T04:12:35.921Z,103794.69
2023-12-16T04:13:25.877Z,103790.66
2023-12-16T04:13:57.417Z,103791.72
2023-12-16T04:14:28.904Z,103799.03
2023-12-16T04:15:00.495Z,103790.09
2023-12-16T04:15:32.479Z,103794.69
2023-12-16T04:16:05.381Z,103790.38
2023-12-16T04:16:38.379Z,103797.66
2023-12-16T04:17:09.907Z,103791.44
2023-12-16T04:18:32.168Z,103792.25
2023-12-16T04:19:04.207Z,103790.63
2023-12-16T04:19:35.698Z,103790.91
2023-12-16T04:20:07.905Z,103790.91
2023-12-16T04:20:39.335Z,103794.44
2023-12-16T04:21:11.107Z,103790.09
2023-12-16T04:21:42.605Z,103796.59
2023-12-16T04:22:32.755Z,103793.88
2023-12-16T04:23:04.285Z,103788.47
2023-12-16T04:23:35.817Z,103801.19
2023-12-16T04:24:07.778Z,103798.47
2023-12-16T04:24:39.258Z,103795.78
2023-12-16T04:25:12.169Z,103797.66
2023-12-16T04:25:43.952Z,103799.28
2023-12-16T04:26:15.502Z,103794.16
2023-12-16T04:26:46.985Z,103799.56
2023-12-16T04:27:18.479Z,103794.16
2023-12-16T04:27:50.019Z,103796.84
2023-12-16T04:28:21.715Z,103793.34
2023-12-16T04:28:53.273Z,103796.03
2023-12-16T04:29:24.806Z,103797.66
2023-12-16T04:29:56.297Z,103794.97
2023-12-16T04:30:27.829Z,103788.72
2023-12-16T04:30:59.537Z,103796.03
2023-12-16T04:31:31.196Z,103795.22
2023-12-16T04:32:02.806Z,103797.13
2023-12-16T04:32:34.471Z,103792.53
2023-12-16T04:33:06.011Z,103793.59
2023-12-16T04:33:37.519Z,103800.13
2023-12-16T04:34:09.573Z,103800.41
2023-12-16T04:34:41.213Z,103800.41
2023-12-16T04:35:31.292Z,103796.88
2023-12-16T04:36:02.960Z,103798.78
2023-12-16T04:36:34.633Z,103799.59
2023-12-16T04:37:06.176Z,103804.19
2023-12-16T04:37:38.063Z,103797.69
2023-12-16T04:38:10.598Z,103799.06
2023-12-16T04:38:42.421Z,103803.38
2023-12-16T04:39:14.112Z,103804.19
2023-12-16T04:39:45.620Z,103800.69
2023-12-16T04:40:17.168Z,103809.88
2023-12-16T04:40:48.676Z,103808.25
2023-12-16T04:41:20.248Z,103802.84
2023-12-16T04:41:51.936Z,103805.81
2023-12-16T04:42:42.211Z,103804.72
2023-12-16T04:43:13.776Z,103809.06
2023-12-16T04:43:45.244Z,103810.16
2023-12-16T04:44:16.897Z,103812.03
2023-12-16T04:45:06.796Z,103812.84
2023-12-16T04:45:38.516Z,103812.84
2023-12-16T04:46:10.038Z,103810.16
2023-12-16T04:46:41.628Z,103811.22
2023-12-16T04:47:13.246Z,103815.56
2023-12-16T04:47:44.819Z,103815.03
2023-12-16T04:48:16.607Z,103812.03
2023-12-16T04:48:48.328Z,103815.84
2023-12-16T04:49:20.159Z,103808.53
2023-12-16T04:49:51.838Z,103807.97
2023-12-16T04:50:23.401Z,103809.88
2023-12-16T04:50:54.893Z,103814.47
2023-12-16T04:51:26.361Z,103813.66
2023-12-16T04:51:57.810Z,103812.03
2023-12-16T04:52:29.397Z,103805.81
2023-12-16T04:53:19.719Z,103795.53
2023-12-16T04:54:42.320Z,103794.97
2023-12-16T04:55:13.994Z,103792.53
2023-12-16T04:55:45.490Z,103799.84
2023-12-16T04:56:16.940Z,103797.16
2023-12-16T04:56:51.781Z,103799.03
2023-12-16T04:57:23.215Z,103797.16
2023-12-16T04:57:54.661Z,103792.81
2023-12-16T04:58:29.558Z,103789.28
2023-12-16T04:59:01.163Z,103792.00
2023-12-16T04:59:32.638Z,103787.41
2023-12-16T05:00:05.907Z,103787.41
2023-12-16T05:00:37.357Z,103784.97
2023-12-16T05:01:08.977Z,103782.25
2023-12-16T05:01:40.952Z,103784.16
2023-12-16T05:02:12.666Z,103777.91
2023-12-16T05:02:44.168Z,103783.63
2023-12-16T05:03:17.016Z,103777.09
2023-12-16T05:03:49.007Z,103786.34
2023-12-16T05:04:20.796Z,103781.72
2023-12-16T05:04:52.332Z,103786.34
2023-12-16T05:05:23.920Z,103787.41
2023-12-16T05:05:56.031Z,103784.72
2023-12-16T05:06:27.535Z,103791.22
2023-12-16T05:07:17.798Z,103784.72
2023-12-16T05:07:49.272Z,103784.72
2023-12-16T05:08:20.902Z,103781.47
2023-12-16T05:08:52.506Z,103781.47
2023-12-16T05:09:24.010Z,103786.06
2023-12-16T05:09:55.511Z,103780.91
2023-12-16T05:10:27.089Z,103780.66
2023-12-16T05:10:58.665Z,103780.91
2023-12-16T05:11:30.468Z,103781.72
2023-12-16T05:12:01.902Z,103782.00
2023-12-16T05:12:35.872Z,103782.00
2023-12-16T05:13:13.930Z,103788.22
2023-12-16T05:13:45.387Z,103794.44
2023-12-16T05:14:16.956Z,103785.53
2023-12-16T05:14:48.425Z,103786.34
2023-12-16T05:15:19.929Z,103786.34
2023-12-16T05:15:52.695Z,103789.03
2023-12-16T05:16:25.065Z,103789.03
2023-12-16T05:16:56.538Z,103791.75
2023-12-16T05:17:46.433Z,103786.59
2023-12-16T05:18:19.110Z,103790.13
2023-12-16T05:18:50.813Z,103788.50
2023-12-16T05:19:22.451Z,103794.19
2023-12-16T05:19:54.044Z,103795.00
2023-12-16T05:20:25.553Z,103788.75
2023-12-16T05:20:57.065Z,103790.38
2023-12-16T05:21:28.550Z,103784.97
2023-12-16T05:22:00.206Z,103784.16
2023-12-16T05:22:34.986Z,103784.16
2023-12-16T05:23:06.635Z,103782.28
2023-12-16T05:23:38.221Z,103786.88
2023-12-16T05:24:09.800Z,103782.28
2023-12-16T05:24:41.398Z,103785.25
2023-12-16T05:25:13.106Z,103787.94
2023-12-16T05:25:45.277Z,103780.91
2023-12-16T05:26:17.035Z,103780.91
2023-12-16T05:26:48.556Z,103781.72
2023-12-16T05:27:20.045Z,103779.28
2023-12-16T05:27:51.606Z,103780.91
2023-12-16T05:28:23.149Z,103781.19
2023-12-16T05:28:54.690Z,103784.69
2023-12-16T05:29:26.236Z,103786.31
2023-12-16T05:29:59.512Z,103780.38
2023-12-16T05:30:31.024Z,103777.66
2023-12-16T05:31:02.736Z,103783.88
2023-12-16T05:31:34.363Z,103786.84
2023-12-16T05:32:06.495Z,103786.59
2023-12-16T05:32:38.083Z,103789.31
2023-12-16T05:33:09.754Z,103783.06
2023-12-16T05:33:41.512Z,103792.00
2023-12-16T05:34:13.168Z,103793.91
2023-12-16T05:34:44.639Z,103795.53
2023-12-16T05:35:16.652Z,103792.81
2023-12-16T05:35:48.221Z,103788.22
2023-12-16T05:36:19.820Z,103789.31
2023-12-16T05:36:54.252Z,103790.09
2023-12-16T05:37:25.909Z,103792.81
2023-12-16T05:37:57.694Z,103785.50
2023-12-16T05:38:29.201Z,103784.69
2023-12-16T05:39:00.700Z,103784.69
2023-12-16T05:39:32.604Z,103782.00
2023-12-16T05:40:04.986Z,103784.16
2023-12-16T05:40:36.593Z,103781.44
2023-12-16T05:41:08.161Z,103787.13
2023-12-16T05:41:39.736Z,103791.72
2023-12-16T05:42:11.209Z,103787.41
2023-12-16T05:42:42.720Z,103788.47
2023-12-16T05:43:14.363Z,103794.69
2023-12-16T05:43:45.850Z,103794.69
2023-12-16T05:44:17.343Z,103797.41
2023-12-16T05:44:48.830Z,103794.69
2023-12-16T05:45:20.317Z,103790.09
2023-12-16T05:45:51.879Z,103793.63
2023-12-16T05:46:23.439Z,103793.06
2023-12-16T05:46:54.994Z,103791.19
2023-12-16T05:47:26.502Z,103788.47
2023-12-16T05:47:58.050Z,103784.69
2023-12-16T05:48:29.736Z,103784.16
2023-12-16T05:49:01.423Z,103783.31
2023-12-16T05:49:32.982Z,103785.78
2023-12-16T05:50:23.477Z,103778.72
2023-12-16T05:50:55.279Z,103780.91
2023-12-16T05:51:26.730Z,103779.28
2023-12-16T05:51:58.301Z,103779.28
2023-12-16T05:52:30.821Z,103779.28
2023-12-16T05:53:02.578Z,103773.06
2023-12-16T05:53:37.503Z,103777.41
2023-12-16T05:54:09.325Z,103777.13
2023-12-16T05:54:41.028Z,103778.47
2023-12-16T05:55:12.684Z,103784.72
2023-12-16T05:55:46.867Z,103785.53
2023-12-16T05:56:18.509Z,103784.72
2023-12-16T05:56:50.186Z,103788.22
2023-12-16T05:57:21.640Z,103787.41
2023-12-16T05:57:53.128Z,103788.22
2023-12-16T05:58:24.964Z,103788.22
2023-12-16T05:58:56.473Z,103790.13
2023-12-16T05:59:29.173Z,103799.06
2023-12-16T06:00:00.673Z,103796.34
2023-12-16T06:00:32.240Z,103789.03
2023-12-16T06:01:05.175Z,103790.13
2023-12-16T06:01:36.897Z,103793.63
2023-12-16T06:02:08.425Z,103791.75
2023-12-16T06:02:39.957Z,103787.16
2023-12-16T06:03:11.482Z,103789.84
2023-12-16T06:03:42.997Z,103787.97
2023-12-16T06:04:15.515Z,103790.94
2023-12-16T06:04:47.133Z,103787.41
2023-12-16T06:05:18.654Z,103787.16
2023-12-16T06:05:50.211Z,103784.72
2023-12-16T06:06:21.744Z,103787.41
2023-12-16T06:06:53.326Z,103781.19
2023-12-16T06:07:24.910Z,103776.84
2023-12-16T06:07:56.488Z,103773.34
2023-12-16T06:08:27.964Z,103779.56
2023-12-16T06:08:59.624Z,103775.22
2023-12-16T06:10:38.350Z,103773.34
2023-12-16T06:11:13.596Z,103775.22
2023-12-16T06:11:45.252Z,103768.47
2023-12-16T06:12:16.748Z,103769.28
2023-12-16T06:12:48.244Z,103768.47
2023-12-16T06:13:19.751Z,103769.81
2023-12-16T06:13:54.264Z,103770.63
2023-12-16T06:14:25.912Z,103763.59
2023-12-16T06:14:57.389Z,103766.28
2023-12-16T06:15:28.921Z,103763.59
2023-12-16T06:16:08.116Z,103771.69
2023-12-16T06:16:48.154Z,103776.31
2023-12-16T06:17:19.817Z,103773.06
2023-12-16T06:17:51.950Z,103773.06
2023-12-16T06:18:23.693Z,103780.34
2023-12-16T06:18:55.514Z,103768.44
2023-12-16T06:19:28.295Z,103775.75
2023-12-16T06:20:00.214Z,103784.69
2023-12-16T06:20:31.999Z,103775.75